Startpagina
METAR-TAF:

METAR-TAF

Vliegvelden :

Puerto Limón, Costa Rica

breedte: 10-00N, lengte: 083-03W, hoogte: 5 m

Actueel weer

Dit bericht is 29 minuten geleden gemaakt, om 18:00 UTC
Wind 7 kt uit het noorden
Temperatuur 27°C
Vochtigheid 74%
Druk 1016 hPa
Zicht 10 km of meer
geen wolken onder 1500 m en geen cumulonimbus

METAR: MRLM 261800Z 01007KT CAVOK 27/22 A2999

Tijdstip: 12:29 (18:29 UTC)

Verwachting

Dit bericht is 1 uur en het 29 minuten geleden gemaakt, om 17:00 UTC
Verwachting geldig van 26 om 18 UTC tot 27 om 18 UTC
Wind 5 kt uit het noordoosten
Zicht 10 km of meer
Weinig wolken op 2000 ft
Verspreide wolken op 10000 ft
Wijzigt naar
van 27 om 00 UTC tot 27 om 02 UTC
Wind 5 kt uit het westzuidwesten
Wijzigt naar
van 27 om 15 UTC tot 27 om 17 UTC
Wind 5 kt uit het oostnoordoosten

TAF: MRLM 261700Z 2618/2718 04005KT 9999 FEW020 SCT100 TX30/2620Z TN22/2711Z BECMG 2700/2702 25005KT BECMG 2715/2717 07005KT

Waarnemingen en weersverwachtingen van meer dan 4000 vliegvelden (METAR en TAF).

De beschikbare stations zijn de gele en rode punten op de kaart.

Ga met uw muis naar het station om de naam te zien.

Klik dan om waarnemingen en weersverwachtingen te zien.

kaart wijzigen: klik op de groene knoppen met een zwart kruis om in te zoomen, op de groene knop met een streepje om uit te zoomen of op de groene pijlen voor aangrenzende kaarten.


METAR-TAF: